createdAt,value
2023-03-30T00:02:05.566Z,7.50
2023-03-30T00:04:34.834Z,7.60
2023-03-30T00:07:01.848Z,7.50
2023-03-30T00:09:32.868Z,7.50
2023-03-30T00:12:04.071Z,7.40
2023-03-30T00:14:31.327Z,7.40
2023-03-30T00:16:58.608Z,7.40
2023-03-30T00:19:28.174Z,7.40
2023-03-30T00:21:55.338Z,7.50
2023-03-30T00:24:24.791Z,7.50
2023-03-30T00:26:52.147Z,7.50
2023-03-30T00:29:21.458Z,7.40
2023-03-30T00:31:49.697Z,7.40
2023-03-30T00:34:16.675Z,7.50
2023-03-30T00:36:47.046Z,7.50
2023-03-30T00:39:14.338Z,7.60
2023-03-30T00:41:41.195Z,7.50
2023-03-30T00:44:46.984Z,7.50
2023-03-30T00:47:17.010Z,7.40
2023-03-30T00:49:44.806Z,7.40
2023-03-30T00:52:12.742Z,7.30
2023-03-30T00:54:40.534Z,7.50
2023-03-30T00:57:08.322Z,7.40
2023-03-30T00:59:35.669Z,7.30
2023-03-30T01:02:02.601Z,7.20
2023-03-30T01:04:30.024Z,7.20
2023-03-30T01:06:58.574Z,7.30
2023-03-30T01:09:26.597Z,7.30
2023-03-30T01:11:58.131Z,7.10
2023-03-30T01:14:25.902Z,7.10
2023-03-30T01:17:13.765Z,7.00
2023-03-30T01:19:59.252Z,6.80
2023-03-30T01:22:30.034Z,6.70
2023-03-30T01:25:15.777Z,6.70
2023-03-30T01:28:01.241Z,6.70
2023-03-30T01:30:57.649Z,6.70
2023-03-30T01:33:51.235Z,6.70
2023-03-30T01:36:40.100Z,7.00
2023-03-30T01:39:17.628Z,7.10
2023-03-30T01:42:16.066Z,7.10
2023-03-30T01:44:55.134Z,7.30
2023-03-30T01:47:35.916Z,7.30
2023-03-30T01:50:24.813Z,7.30
2023-03-30T01:53:00.495Z,7.50
2023-03-30T01:55:35.161Z,7.50
2023-03-30T01:58:16.134Z,7.50
2023-03-30T02:00:50.539Z,7.60
2023-03-30T02:03:31.955Z,7.60
2023-03-30T02:06:19.712Z,7.60
2023-03-30T02:08:49.884Z,7.60
2023-03-30T02:11:16.988Z,7.60
2023-03-30T02:13:45.744Z,7.60
2023-03-30T02:16:16.991Z,7.60
2023-03-30T02:18:46.301Z,7.40
2023-03-30T02:21:13.697Z,7.50
2023-03-30T02:23:45.626Z,7.40
2023-03-30T02:26:13.757Z,7.30
2023-03-30T02:28:41.316Z,7.30
2023-03-30T02:31:17.926Z,7.30
2023-03-30T02:34:09.389Z,7.30
2023-03-30T02:37:05.154Z,7.30
2023-03-30T02:39:41.909Z,7.30
2023-03-30T02:42:11.566Z,7.40
2023-03-30T02:44:51.577Z,7.30
2023-03-30T02:47:47.935Z,7.40
2023-03-30T02:50:27.116Z,7.40
2023-03-30T02:53:04.212Z,7.20
2023-03-30T02:56:07.225Z,7.10
2023-03-30T02:59:23.192Z,6.90
2023-03-30T03:02:13.160Z,6.90
2023-03-30T03:04:43.837Z,6.80
2023-03-30T03:07:21.636Z,6.90
2023-03-30T03:09:49.669Z,6.80
2023-03-30T03:12:21.666Z,6.80
2023-03-30T03:14:50.462Z,6.70
2023-03-30T03:17:22.847Z,6.60
2023-03-30T03:19:50.719Z,6.70
2023-03-30T03:22:23.006Z,6.70
2023-03-30T03:24:51.494Z,6.70
2023-03-30T03:27:39.451Z,6.60
2023-03-30T03:30:18.025Z,6.50
2023-03-30T03:32:52.959Z,6.40
2023-03-30T03:35:24.853Z,6.50
2023-03-30T03:37:51.949Z,6.50
2023-03-30T03:40:20.282Z,6.50
2023-03-30T03:42:57.069Z,6.50
2023-03-30T03:45:25.327Z,6.40
2023-03-30T03:47:57.834Z,6.50
2023-03-30T03:50:48.875Z,6.40
2023-03-30T03:53:16.431Z,6.50
2023-03-30T03:55:44.490Z,6.60
2023-03-30T03:58:20.901Z,6.60
2023-03-30T04:00:51.626Z,6.70
2023-03-30T04:03:20.183Z,6.60
2023-03-30T04:05:53.026Z,6.60
2023-03-30T04:08:27.573Z,6.60
2023-03-30T04:11:08.271Z,6.60
2023-03-30T04:13:55.417Z,6.60
2023-03-30T04:16:42.273Z,6.60
2023-03-30T04:19:31.552Z,6.60
2023-03-30T04:22:14.512Z,6.60
2023-03-30T04:25:07.456Z,6.50
2023-03-30T04:27:57.504Z,6.60
2023-03-30T04:30:41.504Z,6.60
2023-03-30T04:33:27.709Z,6.60
2023-03-30T04:36:19.237Z,6.60
2023-03-30T04:39:07.684Z,6.60
2023-03-30T04:41:58.855Z,6.50
2023-03-30T04:44:45.719Z,6.50
2023-03-30T04:47:40.433Z,6.50
2023-03-30T04:50:27.554Z,6.50
2023-03-30T04:53:16.244Z,6.50
2023-03-30T04:56:04.866Z,6.50
2023-03-30T04:58:41.878Z,6.50
2023-03-30T05:01:46.492Z,6.60
2023-03-30T05:04:34.901Z,6.40
2023-03-30T05:07:34.278Z,6.60
2023-03-30T05:10:37.829Z,6.50
2023-03-30T05:13:27.719Z,6.60
2023-03-30T05:16:17.462Z,6.60
2023-03-30T05:19:07.469Z,6.60
2023-03-30T05:21:53.462Z,6.80
2023-03-30T05:24:42.484Z,6.90
2023-03-30T05:27:35.680Z,7.00
2023-03-30T05:30:28.816Z,7.10
2023-03-30T05:33:17.682Z,7.20
2023-03-30T05:36:05.061Z,7.30
2023-03-30T05:39:05.388Z,7.30
2023-03-30T05:42:05.659Z,7.20
2023-03-30T05:44:58.816Z,7.30
2023-03-30T05:47:56.170Z,7.20
2023-03-30T05:50:39.332Z,7.20
2023-03-30T05:53:11.240Z,7.20
2023-03-30T05:55:49.113Z,7.20
2023-03-30T05:58:17.489Z,7.10
2023-03-30T06:00:58.635Z,7.10
2023-03-30T06:03:35.539Z,7.10
2023-03-30T06:06:08.693Z,7.00
2023-03-30T06:08:36.653Z,6.90
2023-03-30T06:11:06.743Z,7.00
2023-03-30T06:13:52.202Z,7.00
2023-03-30T06:16:19.640Z,7.10
2023-03-30T06:18:49.442Z,7.10
2023-03-30T06:21:17.831Z,7.10
2023-03-30T06:24:14.985Z,7.10
2023-03-30T06:26:42.821Z,7.20
2023-03-30T06:29:10.086Z,7.10
2023-03-30T06:31:38.207Z,7.20
2023-03-30T06:34:27.043Z,7.20
2023-03-30T06:36:54.743Z,7.20
2023-03-30T06:39:24.487Z,7.30
2023-03-30T06:41:56.808Z,7.30
2023-03-30T06:44:35.832Z,7.40
2023-03-30T06:47:11.144Z,7.30
2023-03-30T06:49:38.413Z,7.30
2023-03-30T06:52:24.333Z,7.20
2023-03-30T06:54:55.426Z,7.20
2023-03-30T06:57:25.159Z,7.20
2023-03-30T06:59:54.867Z,7.30
2023-03-30T07:02:26.902Z,7.30
2023-03-30T07:05:16.286Z,7.30
2023-03-30T07:08:28.753Z,7.20
2023-03-30T07:10:58.145Z,7.40
2023-03-30T07:13:35.350Z,7.40
2023-03-30T07:16:07.031Z,7.40
2023-03-30T07:18:35.884Z,7.50
2023-03-30T07:21:08.447Z,7.50
2023-03-30T07:23:42.032Z,7.50
2023-03-30T07:26:13.462Z,7.50
2023-03-30T07:28:58.975Z,7.60
2023-03-30T07:31:29.004Z,7.70
2023-03-30T07:33:56.657Z,7.80
2023-03-30T07:36:33.368Z,7.80
2023-03-30T07:39:06.376Z,8.00
2023-03-30T07:41:36.992Z,8.10
2023-03-30T07:44:13.802Z,8.30
2023-03-30T07:46:42.519Z,8.30
2023-03-30T07:49:26.718Z,8.40
2023-03-30T07:51:57.357Z,8.40
2023-03-30T07:54:32.378Z,8.60
2023-03-30T07:57:12.980Z,8.60
2023-03-30T07:59:44.011Z,8.70
2023-03-30T08:02:45.000Z,8.80
2023-03-30T08:05:19.023Z,9.00
2023-03-30T08:07:56.167Z,9.10
2023-03-30T08:10:30.448Z,9.20
2023-03-30T08:12:57.801Z,9.40
2023-03-30T08:15:29.928Z,9.30
2023-03-30T08:17:58.851Z,9.40
2023-03-30T08:20:27.943Z,9.40
2023-03-30T08:22:58.400Z,9.40
2023-03-30T08:25:31.863Z,9.40
2023-03-30T08:28:02.421Z,9.50
2023-03-30T08:30:34.428Z,9.60
2023-03-30T08:33:05.719Z,9.70
2023-03-30T08:35:36.818Z,9.80
2023-03-30T08:38:05.187Z,10.00
2023-03-30T08:40:38.483Z,10.40
2023-03-30T08:43:16.802Z,10.40
2023-03-30T08:45:46.699Z,10.60
2023-03-30T08:48:27.155Z,10.60
2023-03-30T08:50:57.210Z,10.60
2023-03-30T08:53:24.300Z,10.80
2023-03-30T08:56:15.441Z,11.10
2023-03-30T08:58:48.642Z,11.60
2023-03-30T09:01:21.620Z,12.30
2023-03-30T09:04:26.290Z,12.80
2023-03-30T09:06:56.855Z,12.80
2023-03-30T09:09:27.632Z,12.90
2023-03-30T09:12:02.824Z,13.00
2023-03-30T09:14:39.479Z,13.00
2023-03-30T09:17:16.949Z,12.90
2023-03-30T09:20:09.625Z,13.30
2023-03-30T09:22:44.573Z,13.10
2023-03-30T09:25:24.121Z,13.00
2023-03-30T09:28:21.586Z,12.80
2023-03-30T09:30:51.927Z,12.60
2023-03-30T09:33:34.671Z,12.60
2023-03-30T09:36:22.784Z,12.60
2023-03-30T09:38:52.598Z,12.60
2023-03-30T09:41:34.755Z,12.50
2023-03-30T09:44:02.988Z,12.20
2023-03-30T09:46:31.921Z,12.00
2023-03-30T09:49:14.515Z,11.60
2023-03-30T09:52:19.635Z,11.50
2023-03-30T09:54:46.922Z,11.50
2023-03-30T09:57:34.207Z,11.70
2023-03-30T10:00:21.836Z,11.80
2023-03-30T10:03:01.031Z,11.90
2023-03-30T10:05:29.362Z,12.10
2023-03-30T10:08:00.095Z,12.50
2023-03-30T10:10:29.223Z,12.80
2023-03-30T10:13:02.943Z,13.10
2023-03-30T10:15:33.091Z,13.40
2023-03-30T10:18:27.541Z,13.50
2023-03-30T10:21:13.424Z,13.80
2023-03-30T10:23:46.420Z,13.70
2023-03-30T10:26:19.897Z,13.50
2023-03-30T10:29:04.096Z,13.40
2023-03-30T10:31:39.752Z,13.40
2023-03-30T10:34:23.321Z,13.20
2023-03-30T10:36:59.179Z,12.80
2023-03-30T10:39:39.777Z,12.60
2023-03-30T10:42:16.327Z,12.70
2023-03-30T10:44:50.714Z,13.50
2023-03-30T10:47:25.104Z,14.30
2023-03-30T10:50:28.818Z,14.50
2023-03-30T10:53:21.351Z,14.70
2023-03-30T10:56:06.942Z,15.50
2023-03-30T10:58:54.266Z,15.70
2023-03-30T11:01:42.850Z,15.90
2023-03-30T11:04:24.259Z,15.70
2023-03-30T11:06:54.726Z,15.70
2023-03-30T11:09:29.487Z,15.70
2023-03-30T11:12:02.081Z,16.10
2023-03-30T11:14:44.808Z,17.10
2023-03-30T11:17:31.456Z,18.00
2023-03-30T11:20:27.732Z,18.80
2023-03-30T11:23:00.108Z,19.10
2023-03-30T11:25:48.487Z,19.20
2023-03-30T11:28:44.965Z,19.50
2023-03-30T11:31:38.538Z,19.70
2023-03-30T11:34:12.646Z,19.70
2023-03-30T11:37:07.233Z,20.10
2023-03-30T11:39:37.032Z,20.80
2023-03-30T11:42:39.513Z,21.40
2023-03-30T11:45:29.565Z,21.70
2023-03-30T11:48:24.364Z,22.00
2023-03-30T11:51:24.761Z,22.20
2023-03-30T11:53:51.948Z,22.00
2023-03-30T11:56:39.498Z,20.40
2023-03-30T11:59:17.493Z,19.10
2023-03-30T12:01:53.546Z,18.20
2023-03-30T12:04:42.278Z,17.40
2023-03-30T12:07:30.836Z,16.30
2023-03-30T12:10:05.927Z,14.90
2023-03-30T12:12:42.127Z,13.80
2023-03-30T12:15:34.862Z,12.20
2023-03-30T12:18:25.330Z,11.30
2023-03-30T12:21:15.155Z,12.00
2023-03-30T12:24:06.897Z,12.90
2023-03-30T12:26:37.891Z,12.20
2023-03-30T12:29:48.135Z,11.30
2023-03-30T12:32:03.301Z,10.70
2023-03-30T12:34:41.485Z,10.60
2023-03-30T12:37:21.288Z,10.70
2023-03-30T12:40:00.387Z,10.70
2023-03-30T12:42:39.785Z,10.50
2023-03-30T12:45:15.879Z,10.30
2023-03-30T12:47:57.813Z,10.20
2023-03-30T12:50:27.847Z,9.70
2023-03-30T12:53:26.516Z,9.70
2023-03-30T12:56:05.891Z,9.50
2023-03-30T12:58:57.347Z,9.30
2023-03-30T13:01:46.726Z,9.10
2023-03-30T13:04:22.545Z,9.00
2023-03-30T13:07:03.426Z,8.90
2023-03-30T13:09:34.964Z,8.90
2023-03-30T13:12:03.272Z,9.00
2023-03-30T13:14:40.916Z,8.90
2023-03-30T13:17:24.095Z,8.90
2023-03-30T13:20:28.342Z,9.00
2023-03-30T13:23:24.915Z,9.10
2023-03-30T13:26:34.463Z,9.40
2023-03-30T13:29:15.172Z,9.80
2023-03-30T13:32:14.507Z,10.20
2023-03-30T13:35:10.273Z,10.40
2023-03-30T13:38:05.833Z,10.50
2023-03-30T13:41:15.908Z,10.30
2023-03-30T13:43:58.796Z,9.90
2023-03-30T13:46:52.029Z,9.60
2023-03-30T13:50:08.631Z,9.50
2023-03-30T13:52:46.776Z,9.50
2023-03-30T13:55:27.156Z,9.70
2023-03-30T13:58:10.346Z,9.90
2023-03-30T14:01:08.296Z,10.20
2023-03-30T14:03:55.463Z,10.40
2023-03-30T14:06:29.946Z,10.30
2023-03-30T14:09:06.198Z,10.50
2023-03-30T14:11:45.073Z,10.40
2023-03-30T14:14:38.142Z,10.30
2023-03-30T14:17:28.344Z,10.10
2023-03-30T14:20:18.569Z,9.90
2023-03-30T14:22:48.954Z,9.80
2023-03-30T14:25:35.047Z,9.70
2023-03-30T14:28:32.664Z,9.60
2023-03-30T14:31:05.046Z,9.60
2023-03-30T14:33:37.797Z,9.80
2023-03-30T14:36:12.601Z,9.90
2023-03-30T14:38:43.602Z,10.00
2023-03-30T14:41:32.495Z,10.10
2023-03-30T14:44:07.478Z,10.20
2023-03-30T14:46:53.422Z,10.20
2023-03-30T14:49:27.828Z,10.30
2023-03-30T14:52:25.428Z,10.30
2023-03-30T14:55:07.883Z,10.40
2023-03-30T14:57:40.323Z,10.60
2023-03-30T15:00:23.033Z,10.60
2023-03-30T15:03:00.741Z,10.70
2023-03-30T15:05:41.726Z,10.80
2023-03-30T15:08:22.499Z,11.10
2023-03-30T15:10:58.288Z,11.30
2023-03-30T15:13:35.714Z,11.40
2023-03-30T15:16:04.703Z,11.50
2023-03-30T15:18:36.205Z,11.50
2023-03-30T15:21:03.874Z,11.50
2023-03-30T15:23:42.005Z,11.60
2023-03-30T15:26:12.758Z,11.60
2023-03-30T15:28:57.061Z,11.50
2023-03-30T15:31:33.088Z,11.70
2023-03-30T15:34:01.379Z,11.70
2023-03-30T15:36:39.095Z,11.80
2023-03-30T15:39:22.232Z,11.80
2023-03-30T15:42:01.716Z,11.90
2023-03-30T15:44:39.234Z,11.90
2023-03-30T15:47:17.160Z,11.90
2023-03-30T15:49:52.567Z,11.90
2023-03-30T15:52:32.804Z,11.90
2023-03-30T15:55:13.263Z,11.90
2023-03-30T15:57:46.362Z,11.90
2023-03-30T16:00:18.599Z,11.80
2023-03-30T16:03:00.088Z,11.80
2023-03-30T16:05:32.585Z,11.70
2023-03-30T16:08:00.026Z,11.50
2023-03-30T16:10:30.567Z,11.50
2023-03-30T16:12:59.360Z,11.60
2023-03-30T16:15:31.993Z,11.80
2023-03-30T16:18:03.367Z,11.90
2023-03-30T16:20:34.909Z,12.00
2023-03-30T16:23:02.195Z,11.90
2023-03-30T16:25:44.643Z,11.70
2023-03-30T16:28:19.334Z,11.60
2023-03-30T16:30:51.905Z,11.30
2023-03-30T16:33:22.809Z,11.10
2023-03-30T16:35:51.744Z,11.00
2023-03-30T16:38:22.355Z,10.90
2023-03-30T16:40:57.332Z,10.80
2023-03-30T16:43:27.825Z,10.80
2023-03-30T16:45:56.065Z,10.90
2023-03-30T16:48:31.306Z,10.80
2023-03-30T16:50:58.644Z,10.90
2023-03-30T16:53:25.866Z,10.90
2023-03-30T16:55:52.985Z,11.10
2023-03-30T16:58:19.894Z,11.10
2023-03-30T17:00:55.678Z,11.20
2023-03-30T17:03:22.784Z,11.40
2023-03-30T17:05:50.184Z,11.40
2023-03-30T17:08:23.868Z,11.40
2023-03-30T17:10:53.167Z,11.40
2023-03-30T17:13:24.161Z,11.40
2023-03-30T17:15:51.569Z,11.40
2023-03-30T17:18:21.393Z,11.20
2023-03-30T17:20:52.881Z,11.10
2023-03-30T17:23:24.900Z,10.80
2023-03-30T17:25:54.632Z,10.90
2023-03-30T17:28:30.513Z,10.70
2023-03-30T17:31:02.759Z,10.40
2023-03-30T17:33:35.729Z,10.30
2023-03-30T17:36:12.879Z,10.20
2023-03-30T17:38:43.432Z,10.00
2023-03-30T17:41:15.938Z,9.90
2023-03-30T17:44:02.983Z,9.80
2023-03-30T17:46:30.121Z,9.70
2023-03-30T17:49:01.459Z,9.50
2023-03-30T17:51:28.739Z,9.40
2023-03-30T17:53:56.294Z,9.30
2023-03-30T17:56:23.445Z,9.30
2023-03-30T17:58:51.797Z,9.20
2023-03-30T18:01:21.272Z,9.10
2023-03-30T18:03:49.488Z,8.90
2023-03-30T18:06:17.159Z,8.80
2023-03-30T18:08:44.723Z,8.70
2023-03-30T18:11:11.809Z,8.70
2023-03-30T18:13:43.718Z,8.80
2023-03-30T18:16:13.029Z,8.80
2023-03-30T18:18:40.244Z,8.80
2023-03-30T18:21:11.938Z,8.80
2023-03-30T18:23:39.053Z,8.70
2023-03-30T18:26:10.319Z,8.70
2023-03-30T18:28:44.703Z,8.70
2023-03-30T18:31:12.246Z,8.70
2023-03-30T18:33:39.686Z,8.70
2023-03-30T18:36:09.773Z,8.80
2023-03-30T18:38:36.729Z,8.80
2023-03-30T18:41:04.189Z,8.90
2023-03-30T18:43:33.857Z,8.80
2023-03-30T18:46:02.651Z,8.80
2023-03-30T18:48:34.294Z,8.80
2023-03-30T18:51:01.577Z,8.80
2023-03-30T18:53:33.199Z,8.80
2023-03-30T18:56:03.821Z,8.80
2023-03-30T18:58:41.968Z,8.80
2023-03-30T19:01:10.034Z,8.70
2023-03-30T19:03:41.195Z,8.60
2023-03-30T19:06:14.071Z,8.60
2023-03-30T19:08:41.357Z,8.40
2023-03-30T19:11:08.430Z,8.30
2023-03-30T19:13:35.675Z,8.30
2023-03-30T19:16:10.317Z,8.20
2023-03-30T19:18:40.437Z,8.30
2023-03-30T19:21:11.459Z,8.10
2023-03-30T19:23:46.589Z,8.00
2023-03-30T19:28:55.394Z,7.90
2023-03-30T19:31:25.221Z,7.80
2023-03-30T19:33:57.408Z,7.80
2023-03-30T19:36:26.058Z,7.80
2023-03-30T19:38:53.326Z,7.70
2023-03-30T19:41:21.694Z,7.60
2023-03-30T19:43:54.174Z,7.60
2023-03-30T19:46:21.931Z,7.50
2023-03-30T19:48:51.229Z,7.40
2023-03-30T19:51:19.489Z,7.20
2023-03-30T19:53:47.527Z,7.10
2023-03-30T19:56:21.996Z,6.90
2023-03-30T19:58:49.334Z,6.80
2023-03-30T20:01:17.164Z,6.60
2023-03-30T20:03:46.697Z,6.50
2023-03-30T20:06:15.685Z,6.40
2023-03-30T20:08:47.679Z,6.40
2023-03-30T20:11:14.580Z,6.40
2023-03-30T20:13:46.003Z,6.60
2023-03-30T20:16:20.679Z,6.60
2023-03-30T20:18:50.768Z,6.70
2023-03-30T20:21:19.248Z,6.90
2023-03-30T20:23:49.305Z,7.00
2023-03-30T20:26:19.537Z,7.20
2023-03-30T20:28:47.134Z,7.30
2023-03-30T20:31:15.156Z,7.40
2023-03-30T20:33:45.046Z,7.30
2023-03-30T20:36:12.431Z,7.30
2023-03-30T20:38:40.676Z,7.30
2023-03-30T20:41:11.509Z,7.20
2023-03-30T20:43:55.690Z,7.20
2023-03-30T20:46:35.358Z,7.00
2023-03-30T20:49:05.915Z,6.90
2023-03-30T20:51:32.778Z,6.90
2023-03-30T20:53:59.669Z,6.80
2023-03-30T20:56:32.327Z,6.80
2023-03-30T20:59:02.788Z,6.80
2023-03-30T21:01:34.710Z,6.80
2023-03-30T21:04:05.515Z,6.90
2023-03-30T21:06:33.899Z,6.90
2023-03-30T21:09:04.356Z,7.00
2023-03-30T21:11:37.340Z,7.10
2023-03-30T21:14:06.738Z,7.10
2023-03-30T21:16:34.464Z,7.10
2023-03-30T21:19:01.829Z,7.20
2023-03-30T21:21:29.036Z,7.20
2023-03-30T21:24:00.824Z,7.40
2023-03-30T21:26:31.665Z,7.30
2023-03-30T21:28:58.906Z,7.30
2023-03-30T21:31:26.865Z,7.30
2023-03-30T21:33:53.828Z,7.20
2023-03-30T21:36:24.025Z,7.30
2023-03-30T21:38:51.598Z,7.30
2023-03-30T21:41:22.328Z,7.30
2023-03-30T21:43:54.712Z,7.30
2023-03-30T21:46:24.248Z,7.20
2023-03-30T21:48:54.230Z,7.20
2023-03-30T21:51:24.797Z,7.10
2023-03-30T21:53:58.657Z,7.00
2023-03-30T21:56:29.708Z,6.90
2023-03-30T21:58:58.091Z,6.90
2023-03-30T22:01:26.560Z,6.80
2023-03-30T22:04:06.137Z,6.80
2023-03-30T22:06:37.627Z,6.70
2023-03-30T22:09:04.599Z,6.70
2023-03-30T22:11:33.780Z,6.50
2023-03-30T22:14:04.050Z,6.50
2023-03-30T22:16:33.323Z,6.50
2023-03-30T22:19:06.803Z,6.50
2023-03-30T22:21:36.247Z,6.30
2023-03-30T22:24:05.458Z,6.30
2023-03-30T22:26:32.832Z,6.30
2023-03-30T22:29:01.179Z,6.20
2023-03-30T22:31:28.901Z,6.30
2023-03-30T22:33:56.688Z,6.30
2023-03-30T22:36:27.007Z,6.20
2023-03-30T22:38:56.538Z,6.20
2023-03-30T22:41:29.205Z,6.20
2023-03-30T22:43:58.495Z,6.30
2023-03-30T22:46:27.405Z,6.20
2023-03-30T22:48:57.102Z,6.20
2023-03-30T22:51:27.635Z,6.20
2023-03-30T22:53:59.301Z,6.30
2023-03-30T22:56:29.152Z,6.30
2023-03-30T22:58:58.445Z,6.30
2023-03-30T23:01:26.105Z,6.30
2023-03-30T23:03:53.663Z,6.40
2023-03-30T23:06:20.977Z,6.30
2023-03-30T23:08:49.461Z,6.30
2023-03-30T23:11:21.923Z,6.40
2023-03-30T23:13:50.514Z,6.30
2023-03-30T23:16:17.794Z,6.30
2023-03-30T23:18:46.098Z,6.20
2023-03-30T23:21:14.080Z,6.20
2023-03-30T23:23:41.548Z,6.10
2023-03-30T23:26:10.606Z,6.20
2023-03-30T23:28:40.517Z,6.20
2023-03-30T23:31:16.036Z,6.30
2023-03-30T23:33:43.720Z,6.20
2023-03-30T23:36:21.872Z,6.20
2023-03-30T23:38:50.293Z,6.20
2023-03-30T23:41:22.371Z,6.10
2023-03-30T23:43:52.799Z,6.20
2023-03-30T23:46:21.417Z,6.10
2023-03-30T23:48:48.293Z,6.20
2023-03-30T23:51:19.131Z,6.10
2023-03-30T23:53:47.619Z,6.10
2023-03-30T23:56:17.794Z,6.20
2023-03-30T23:58:45.463Z,6.10
